Time;durP1;ratioP1;P1;durP2;ratioP2;P2;SDS_P1;SDS_P2;PMS_P1;PMS_P2;Temp;Humidity;BMP_temperature;BMP_pressure;BME280_temperature;BME280_humidity;BME280_pressure;Samples;Min_cycle;Max_cycle;Signal;HPM_P1;HPM_P2
2022/12/02 00:02:03;;;;;;;48.22;24.85;;;2.50;99.90;;;;;;5055888;28;20091;-31
2022/12/02 00:04:29;;;;;;;49.42;25.25;;;2.50;99.90;;;;;;5055916;28;20056;-31
2022/12/02 00:06:57;;;;;;;54.67;26.50;;;2.50;99.90;;;;;;5055813;28;20075;-31
2022/12/02 00:09:32;;;;;;;49.55;25.75;;;2.50;99.90;;;;;;5055457;28;20487;-31
2022/12/02 00:12:00;;;;;;;52.55;25.17;;;2.50;99.90;;;;;;5055859;28;20048;-30
2022/12/02 00:14:29;;;;;;;49.40;26.10;;;2.50;99.90;;;;;;5055357;28;20479;-31
2022/12/02 00:16:55;;;;;;;51.70;25.90;;;2.50;99.90;;;;;;5055623;28;20037;-31
2022/12/02 00:19:22;;;;;;;52.97;26.08;;;2.50;99.90;;;;;;5055492;28;20047;-30
2022/12/02 00:21:49;;;;;;;53.95;27.13;;;2.50;99.90;;;;;;5088166;28;20502;-30
2022/12/02 00:24:16;;;;;;;53.75;26.92;;;2.50;99.90;;;;;;5055779;28;20110;-30
2022/12/02 00:26:42;;;;;;;54.83;26.63;;;2.50;99.90;;;;;;5055491;28;20080;-30
2022/12/02 00:29:08;;;;;;;57.42;26.58;;;2.50;99.90;;;;;;5055344;28;20070;-30
2022/12/02 00:31:33;;;;;;;53.42;25.92;;;2.50;99.90;;;;;;5055417;28;20056;-33
2022/12/02 00:33:59;;;;;;;53.90;27.42;;;2.40;99.90;;;;;;5055747;28;20048;-32
2022/12/02 00:36:26;;;;;;;58.55;27.48;;;2.40;99.90;;;;;;5054440;28;20051;-31
2022/12/02 00:38:52;;;;;;;55.45;26.58;;;2.50;99.90;;;;;;5056382;28;20486;-30
2022/12/02 00:41:18;;;;;;;54.38;28.13;;;2.50;99.90;;;;;;5055189;28;20437;-30
2022/12/02 00:46:31;;;;;;;60.72;28.92;;;2.50;99.90;;;;;;5055712;28;20045;-30
2022/12/02 00:49:11;;;;;;;53.75;26.83;;;2.50;99.90;;;;;;5055001;28;20186;-30
2022/12/02 00:51:38;;;;;;;57.75;27.40;;;2.50;99.90;;;;;;5055322;28;20040;-30
2022/12/02 00:54:05;;;;;;;57.08;28.38;;;2.50;99.90;;;;;;5054977;28;20049;-30
2022/12/02 00:56:31;;;;;;;54.58;26.67;;;2.50;99.90;;;;;;5054946;28;20132;-31
2022/12/02 00:58:57;;;;;;;58.75;27.63;;;2.50;99.90;;;;;;5054864;28;20479;-31
2022/12/02 01:01:23;;;;;;;57.78;28.58;;;2.50;99.90;;;;;;5054147;28;20052;-30
2022/12/02 01:03:49;;;;;;;56.13;26.02;;;2.50;99.90;;;;;;5054781;28;20483;-30
2022/12/02 01:06:15;;;;;;;63.70;29.15;;;2.50;99.90;;;;;;5054829;28;20084;-30
2022/12/02 01:08:41;;;;;;;56.92;28.33;;;2.50;99.90;;;;;;5054590;28;20491;-31
2022/12/02 01:11:07;;;;;;;61.22;28.30;;;2.50;99.90;;;;;;5054659;28;20041;-30
2022/12/02 01:13:33;;;;;;;66.05;29.52;;;2.50;99.90;;;;;;5054498;28;20122;-31
2022/12/02 01:15:59;;;;;;;59.70;26.73;;;2.50;99.90;;;;;;5055229;28;20124;-30
2022/12/02 01:18:25;;;;;;;60.33;27.65;;;2.50;99.90;;;;;;5054627;28;20474;-31
2022/12/02 01:20:51;;;;;;;62.72;29.08;;;2.40;99.90;;;;;;5054374;28;20037;-31
2022/12/02 01:23:17;;;;;;;67.05;28.75;;;2.80;99.90;;;;;;5054291;28;20514;-30
2022/12/02 01:25:43;;;;;;;56.33;26.48;;;2.50;99.90;;;;;;5054343;28;20057;-30
2022/12/02 01:28:08;;;;;;;59.42;26.75;;;2.40;99.90;;;;;;5054566;28;20045;-31
2022/12/02 01:30:34;;;;;;;56.53;27.42;;;2.40;99.90;;;;;;5053275;28;20459;-30
2022/12/02 01:33:00;;;;;;;54.13;25.80;;;2.40;99.90;;;;;;5053842;28;20063;-31
2022/12/02 01:35:26;;;;;;;49.72;25.00;;;2.40;99.90;;;;;;5054158;28;20055;-31
2022/12/02 01:37:51;;;;;;;51.28;24.23;;;2.40;99.90;;;;;;5054134;28;20394;-31
2022/12/02 01:40:18;;;;;;;51.92;24.27;;;2.50;99.90;;;;;;5054373;28;20041;-30
2022/12/02 01:42:45;;;;;;;58.35;25.40;;;2.40;99.90;;;;;;5053032;28;20085;-30
2022/12/02 01:45:12;;;;;;;55.92;25.48;;;2.40;99.90;;;;;;5052817;28;20103;-31
2022/12/02 01:47:39;;;;;;;53.58;25.70;;;2.30;99.90;;;;;;5053643;28;20498;-31
2022/12/02 01:50:06;;;;;;;53.83;25.25;;;2.30;99.90;;;;;;5054069;28;20091;-31
2022/12/02 01:52:32;;;;;;;51.10;24.20;;;2.30;99.90;;;;;;5053872;28;20041;-30
2022/12/02 01:54:58;;;;;;;51.60;25.13;;;2.30;99.90;;;;;;5054660;28;20422;-31
2022/12/02 01:57:29;;;;;;;55.28;26.08;;;2.30;99.90;;;;;;5054118;28;20045;-30
2022/12/02 01:59:55;;;;;;;56.17;25.55;;;2.30;99.90;;;;;;5053811;28;20084;-31
2022/12/02 02:02:28;;;;;;;55.88;23.60;;;2.70;99.90;;;;;;5053744;28;20055;-30
2022/12/02 02:04:59;;;;;;;54.63;25.30;;;2.20;99.90;;;;;;5053726;28;20048;-31
2022/12/02 02:07:25;;;;;;;49.63;24.05;;;2.20;99.90;;;;;;5052384;28;20053;-30
2022/12/02 02:09:51;;;;;;;49.72;23.92;;;2.30;99.90;;;;;;5053506;28;20062;-31
2022/12/02 02:12:17;;;;;;;55.83;24.58;;;2.30;99.90;;;;;;5053589;28;20088;-30
2022/12/02 02:14:43;;;;;;;62.05;26.42;;;2.20;99.90;;;;;;5053536;28;20072;-30
2022/12/02 02:17:09;;;;;;;63.10;26.50;;;2.30;99.90;;;;;;5052337;28;20044;-30
2022/12/02 02:19:35;;;;;;;61.80;26.92;;;2.20;99.90;;;;;;5053997;28;20037;-30
2022/12/02 02:22:12;;;;;;;58.33;26.50;;;2.20;99.90;;;;;;5053465;28;20045;-31
2022/12/02 02:24:38;;;;;;;59.38;26.55;;;2.30;99.90;;;;;;5086999;28;20376;-30
2022/12/02 02:27:03;;;;;;;63.13;26.23;;;2.30;99.90;;;;;;5053008;28;20041;-30
2022/12/02 02:29:29;;;;;;;61.70;27.08;;;2.30;99.90;;;;;;5053018;28;20037;-35
2022/12/02 02:31:55;;;;;;;63.53;26.48;;;2.30;99.90;;;;;;5035864;28;20055;-35
2022/12/02 02:34:21;;;;;;;68.85;27.20;;;2.30;99.90;;;;;;5053450;28;20092;-34
2022/12/02 02:36:47;;;;;;;69.55;27.88;;;2.30;99.90;;;;;;5053622;28;20092;-34
2022/12/02 02:39:12;;;;;;;68.88;28.08;;;2.60;99.90;;;;;;5052385;28;20135;-30
2022/12/02 02:41:38;;;;;;;62.80;26.45;;;2.30;99.90;;;;;;5053579;28;20052;-30
2022/12/02 02:44:04;;;;;;;65.25;26.90;;;2.30;99.90;;;;;;5052118;28;20491;-33
2022/12/02 02:46:30;;;;;;;70.65;27.90;;;2.40;99.90;;;;;;5054146;28;20052;-32
2022/12/02 02:48:56;;;;;;;66.53;26.52;;;2.30;99.90;;;;;;5086625;28;20472;-32
2022/12/02 02:51:22;;;;;;;66.85;27.58;;;2.30;99.90;;;;;;5053214;28;20055;-33
2022/12/02 02:53:49;;;;;;;71.80;27.33;;;2.30;99.90;;;;;;5052320;28;20041;-33
2022/12/02 02:56:14;;;;;;;73.97;27.55;;;2.30;99.90;;;;;;5052380;28;20051;-32
2022/12/02 02:58:40;;;;;;;59.20;26.45;;;2.30;99.90;;;;;;5054811;28;20045;-34
2022/12/02 03:01:09;;;;;;;70.15;28.25;;;2.30;99.90;;;;;;5057103;28;20051;-33
2022/12/02 03:03:41;;;;;;;67.20;27.75;;;2.30;99.90;;;;;;5057070;28;20052;-33
2022/12/02 03:06:08;;;;;;;63.50;26.30;;;2.30;99.90;;;;;;5056893;28;20123;-33
2022/12/02 03:08:37;;;;;;;66.18;27.52;;;2.50;99.90;;;;;;5057847;28;20475;-32
2022/12/02 03:11:03;;;;;;;67.93;27.33;;;2.30;99.90;;;;;;5056865;28;20445;-33
2022/12/02 03:13:32;;;;;;;63.97;26.63;;;2.30;99.90;;;;;;5056850;28;20131;-33
2022/12/02 03:15:58;;;;;;;59.92;26.02;;;2.30;99.90;;;;;;5056864;28;20072;-33
2022/12/02 03:18:24;;;;;;;66.32;26.33;;;2.30;99.90;;;;;;5055584;28;20128;-33
2022/12/02 03:20:50;;;;;;;68.32;28.45;;;2.30;99.90;;;;;;5056446;28;20128;-33
2022/12/02 03:23:16;;;;;;;63.88;26.52;;;2.30;99.90;;;;;;5056707;28;20127;-33
2022/12/02 03:25:42;;;;;;;65.10;27.20;;;2.30;99.90;;;;;;5056705;28;20057;-33
2022/12/02 03:28:10;;;;;;;60.97;28.15;;;2.30;99.90;;;;;;5073190;28;20045;-32
2022/12/02 03:30:37;;;;;;;61.03;26.58;;;2.30;99.90;;;;;;5056468;28;20056;-32
2022/12/02 03:33:03;;;;;;;61.45;28.65;;;2.30;99.90;;;;;;5056170;28;20395;-33
2022/12/02 03:35:29;;;;;;;61.92;28.52;;;2.30;99.90;;;;;;5056476;28;20045;-33
2022/12/02 03:37:55;;;;;;;57.53;26.05;;;2.20;99.90;;;;;;5056425;28;20041;-33
2022/12/02 03:40:20;;;;;;;56.25;25.20;;;2.20;99.90;;;;;;5056374;28;20128;-33
2022/12/02 03:42:46;;;;;;;55.22;23.83;;;2.20;99.90;;;;;;5056331;28;20399;-32
2022/12/02 03:45:12;;;;;;;55.97;24.98;;;2.20;99.90;;;;;;5056006;28;20053;-33
2022/12/02 03:47:39;;;;;;;52.22;25.65;;;2.20;99.90;;;;;;5056489;28;20049;-33
2022/12/02 03:50:06;;;;;;;48.17;21.83;;;2.20;99.90;;;;;;5056167;28;20044;-33
2022/12/02 03:52:32;;;;;;;47.60;22.23;;;2.10;99.90;;;;;;5056358;28;20448;-33
2022/12/02 03:54:57;;;;;;;50.08;23.08;;;2.10;99.90;;;;;;5056130;28;20092;-33
2022/12/02 03:57:24;;;;;;;49.88;22.10;;;2.10;99.90;;;;;;5056637;28;20080;-32
2022/12/02 03:59:49;;;;;;;52.72;24.15;;;2.00;99.90;;;;;;5054910;28;20052;-33
2022/12/02 04:02:15;;;;;;;55.65;23.50;;;2.10;99.90;;;;;;5056803;28;20045;-33
2022/12/02 04:04:41;;;;;;;48.40;22.98;;;2.00;99.90;;;;;;5056249;28;20048;-33
2022/12/02 04:07:07;;;;;;;48.80;23.75;;;2.00;99.90;;;;;;5055518;28;20140;-32
2022/12/02 04:09:32;;;;;;;52.58;23.13;;;2.00;99.90;;;;;;5056432;28;20052;-32
2022/12/02 04:11:58;;;;;;;52.80;23.90;;;2.00;99.90;;;;;;5056104;28;20436;-33
2022/12/02 04:14:24;;;;;;;57.92;24.90;;;2.00;99.90;;;;;;5055750;28;20365;-33
2022/12/02 04:16:49;;;;;;;56.95;23.38;;;2.00;99.90;;;;;;5055405;28;20044;-33
2022/12/02 04:19:15;;;;;;;52.40;23.05;;;2.00;99.90;;;;;;5055606;28;20037;-33
2022/12/02 04:21:41;;;;;;;48.25;23.20;;;2.00;99.90;;;;;;5055615;28;20085;-33
2022/12/02 04:24:07;;;;;;;51.75;25.02;;;2.00;99.90;;;;;;5088207;28;20498;-33
2022/12/02 04:26:33;;;;;;;53.90;24.30;;;2.00;99.90;;;;;;5088109;28;20132;-33
2022/12/02 04:28:58;;;;;;;59.25;24.83;;;2.00;99.90;;;;;;5055428;28;20067;-33
2022/12/02 04:31:24;;;;;;;57.65;24.00;;;2.00;99.90;;;;;;5055491;28;20136;-32
2022/12/02 04:33:50;;;;;;;51.55;23.25;;;2.00;99.90;;;;;;5088030;28;20053;-33
2022/12/02 04:36:15;;;;;;;48.15;22.92;;;2.10;99.90;;;;;;5055061;28;20049;-34
2022/12/02 04:38:41;;;;;;;56.25;24.40;;;2.00;99.90;;;;;;5055868;28;20052;-32
2022/12/02 04:41:07;;;;;;;53.55;24.75;;;2.00;99.90;;;;;;5055246;28;20048;-34
2022/12/02 04:43:32;;;;;;;59.13;25.95;;;2.10;99.90;;;;;;5055207;28;20041;-34
2022/12/02 04:45:58;;;;;;;58.33;26.75;;;2.10;99.90;;;;;;5055739;28;20045;-33
2022/12/02 04:48:24;;;;;;;56.90;24.17;;;2.60;99.90;;;;;;5053890;28;20041;-33
2022/12/02 04:50:50;;;;;;;56.42;23.83;;;2.10;99.90;;;;;;5087454;28;20179;-32
2022/12/02 04:53:15;;;;;;;56.53;24.42;;;2.20;99.90;;;;;;5055022;28;20080;-33
2022/12/02 04:55:42;;;;;;;62.58;25.23;;;2.10;99.90;;;;;;5054011;28;20261;-33
2022/12/02 04:58:08;;;;;;;59.22;24.25;;;2.10;99.90;;;;;;5055482;28;20048;-33
2022/12/02 05:00:33;;;;;;;50.83;24.67;;;2.10;99.90;;;;;;5037943;28;20360;-33
2022/12/02 05:02:59;;;;;;;61.25;26.20;;;2.30;99.90;;;;;;5087648;28;20056;-32
2022/12/02 05:05:25;;;;;;;52.47;24.73;;;2.20;99.90;;;;;;5054826;28;20483;-32
2022/12/02 05:07:50;;;;;;;52.97;24.30;;;2.20;99.90;;;;;;5053238;28;20130;-33
2022/12/02 05:10:16;;;;;;;54.05;23.55;;;2.20;99.90;;;;;;5055453;28;20055;-33
2022/12/02 05:12:42;;;;;;;57.83;25.70;;;2.20;99.90;;;;;;5054988;28;20106;-32
2022/12/02 05:15:08;;;;;;;49.90;24.23;;;2.10;99.90;;;;;;5087248;28;20482;-32
2022/12/02 05:17:34;;;;;;;58.38;24.10;;;2.10;99.90;;;;;;5054175;28;20402;-33
2022/12/02 05:19:59;;;;;;;61.08;25.65;;;2.10;99.90;;;;;;5054535;28;20124;-33
2022/12/02 05:22:25;;;;;;;64.10;27.05;;;2.50;99.90;;;;;;5054500;28;20110;-33
2022/12/02 05:24:51;;;;;;;66.38;25.92;;;2.10;99.90;;;;;;5053301;28;20041;-33
2022/12/02 05:27:17;;;;;;;59.70;24.95;;;2.00;99.90;;;;;;5054425;28;20478;-33
2022/12/02 05:29:43;;;;;;;60.00;25.58;;;2.00;99.90;;;;;;5054270;28;20045;-33
2022/12/02 05:32:08;;;;;;;69.20;26.75;;;1.90;99.90;;;;;;5054268;28;20045;-32
2022/12/02 05:34:34;;;;;;;71.85;28.38;;;1.90;99.90;;;;;;5054225;28;20048;-33
2022/12/02 05:37:00;;;;;;;74.97;27.85;;;1.90;99.90;;;;;;5087599;28;20136;-33
2022/12/02 05:39:25;;;;;;;71.75;27.52;;;1.90;99.90;;;;;;5054143;28;20045;-33
2022/12/02 05:41:53;;;;;;;77.18;28.02;;;1.90;99.90;;;;;;5054373;28;20045;-33
2022/12/02 05:44:24;;;;;;;79.53;27.55;;;1.90;99.90;;;;;;5054065;28;20045;-33
2022/12/02 05:46:51;;;;;;;81.60;29.05;;;1.90;99.90;;;;;;5054294;28;20045;-33
2022/12/02 05:49:22;;;;;;;80.68;29.15;;;1.80;99.90;;;;;;5053925;28;20037;-32
2022/12/02 05:52:01;;;;;;;85.25;29.75;;;1.80;99.90;;;;;;5053940;28;20045;-33
2022/12/02 05:54:28;;;;;;;77.05;26.23;;;1.80;99.90;;;;;;5053970;28;20084;-32
2022/12/02 05:56:55;;;;;;;87.05;29.60;;;1.80;99.90;;;;;;5053874;28;20043;-32
2022/12/02 05:59:21;;;;;;;85.38;29.65;;;1.80;99.90;;;;;;5053845;28;20483;-32
2022/12/02 06:01:52;;;;;;;80.13;29.50;;;1.80;99.90;;;;;;5054621;28;20110;-33
2022/12/02 06:04:22;;;;;;;91.30;28.80;;;1.80;99.90;;;;;;5054394;28;20388;-33
2022/12/02 06:06:48;;;;;;;93.10;30.70;;;1.80;99.90;;;;;;5053590;28;20059;-33
2022/12/02 06:09:17;;;;;;;103.43;31.20;;;1.80;99.90;;;;;;5053644;28;20049;-33
2022/12/02 06:11:44;;;;;;;83.70;29.88;;;1.80;99.90;;;;;;5053702;28;20052;-32
2022/12/02 06:14:24;;;;;;;85.53;29.05;;;1.80;99.90;;;;;;5087036;28;20463;-33
2022/12/02 06:16:52;;;;;;;86.53;30.83;;;2.60;99.90;;;;;;5053678;28;20045;-33
2022/12/02 06:19:47;;;;;;;81.20;28.15;;;1.70;99.90;;;;;;5054064;28;20128;-34
2022/12/02 06:22:26;;;;;;;84.43;30.35;;;1.70;99.90;;;;;;5053883;28;20071;-33
2022/12/02 06:24:58;;;;;;;90.55;30.02;;;1.80;99.90;;;;;;5054131;28;20091;-33
2022/12/02 06:27:26;;;;;;;83.93;29.48;;;2.10;99.90;;;;;;5054104;28;20053;-32
2022/12/02 06:29:57;;;;;;;91.65;29.30;;;1.70;99.90;;;;;;5053720;28;20128;-33
2022/12/02 06:32:34;;;;;;;91.00;30.55;;;1.70;99.90;;;;;;5053733;28;20049;-32
2022/12/02 06:34:59;;;;;;;92.68;31.45;;;1.70;99.90;;;;;;5057770;28;20041;-33
2022/12/02 06:37:29;;;;;;;91.53;31.17;;;1.70;99.90;;;;;;5057259;28;20398;-33
2022/12/02 06:39:57;;;;;;;91.15;31.70;;;1.60;99.90;;;;;;5057602;28;20040;-32
2022/12/02 06:42:33;;;;;;;92.97;30.15;;;1.60;99.90;;;;;;5057499;28;20399;-33
2022/12/02 06:45:29;;;;;;;102.82;29.42;;;1.70;99.90;;;;;;5057759;28;20053;-34
2022/12/02 06:48:17;;;;;;;87.57;31.02;;;1.60;99.90;;;;;;5056415;28;20498;-33
2022/12/02 06:50:45;;;;;;;104.40;32.15;;;1.70;99.90;;;;;;5057616;28;20375;-33
2022/12/02 06:53:17;;;;;;;100.13;32.03;;;1.70;99.90;;;;;;5057332;28;20045;-33
2022/12/02 06:55:43;;;;;;;99.40;31.02;;;2.10;99.90;;;;;;5057257;28;20049;-32
2022/12/02 06:58:39;;;;;;;97.50;31.77;;;1.60;99.90;;;;;;5057244;28;20491;-33
2022/12/02 07:01:28;;;;;;;97.70;30.23;;;1.60;99.90;;;;;;5057193;28;20186;-34
2022/12/02 07:04:04;;;;;;;103.25;31.35;;;1.60;99.90;;;;;;5057140;28;20056;-33
2022/12/02 07:06:31;;;;;;;105.32;31.55;;;1.60;99.90;;;;;;5057088;28;20053;-32
2022/12/02 07:09:00;;;;;;;96.50;30.02;;;1.80;99.90;;;;;;5057223;28;20060;-33
2022/12/02 07:11:49;;;;;;;109.68;31.65;;;1.70;99.90;;;;;;5057189;28;20049;-32
2022/12/02 07:14:17;;;;;;;100.97;31.88;;;1.70;99.90;;;;;;5056500;28;20526;-33
2022/12/02 07:16:43;;;;;;;94.10;31.45;;;1.70;99.90;;;;;;5056786;28;20049;-33
2022/12/02 07:19:15;;;;;;;95.32;30.88;;;1.80;99.90;;;;;;5056663;28;20049;-33
2022/12/02 07:21:41;;;;;;;88.78;29.38;;;1.80;99.90;;;;;;5057246;28;20044;-32
2022/12/02 07:24:13;;;;;;;93.65;30.63;;;1.90;99.90;;;;;;5056645;28;20044;-32
2022/12/02 07:26:39;;;;;;;82.15;29.92;;;1.80;99.90;;;;;;5057515;28;20048;-33
2022/12/02 07:29:08;;;;;;;83.38;28.23;;;1.90;99.90;;;;;;5056584;28;20052;-32
2022/12/02 07:31:34;;;;;;;88.97;29.88;;;1.90;99.90;;;;;;5090055;28;20047;-33
2022/12/02 07:33:59;;;;;;;84.60;29.75;;;2.00;99.90;;;;;;5056467;28;20041;-33
2022/12/02 07:36:25;;;;;;;90.47;29.95;;;2.00;99.90;;;;;;5056446;28;20221;-33
2022/12/02 07:38:51;;;;;;;80.43;30.30;;;2.10;99.90;;;;;;5055790;28;20114;-33
2022/12/02 07:41:18;;;;;;;88.95;29.65;;;2.10;99.90;;;;;;5056708;28;20076;-33
2022/12/02 07:43:44;;;;;;;87.15;31.38;;;2.20;99.90;;;;;;5055896;28;20088;-34
2022/12/02 07:46:09;;;;;;;81.68;28.58;;;2.20;99.90;;;;;;5056324;28;20088;-33
2022/12/02 07:48:35;;;;;;;76.22;28.85;;;2.80;99.90;;;;;;5055078;28;20067;-34
2022/12/02 07:51:01;;;;;;;81.93;30.23;;;2.40;99.90;;;;;;5056173;28;20045;-33
2022/12/02 07:53:26;;;;;;;74.22;25.60;;;2.40;99.90;;;;;;5056105;28;20040;-33
2022/12/02 07:55:52;;;;;;;79.47;29.08;;;2.70;99.90;;;;;;5056652;28;20083;-33
2022/12/02 07:58:18;;;;;;;74.13;27.55;;;2.50;99.90;;;;;;5089540;28;20434;-32
2022/12/02 08:00:43;;;;;;;69.50;28.23;;;2.60;99.90;;;;;;5055061;28;20155;-33
2022/12/02 08:03:09;;;;;;;72.20;28.67;;;2.70;99.90;;;;;;5089102;28;20053;-32
2022/12/02 08:05:35;;;;;;;67.55;27.30;;;2.80;99.90;;;;;;5055968;28;20087;-32
2022/12/02 08:08:00;;;;;;;75.38;28.92;;;3.20;99.90;;;;;;5054919;28;20049;-32
2022/12/02 08:10:26;;;;;;;76.05;29.77;;;2.70;99.90;;;;;;5055682;28;20395;-32
2022/12/02 08:12:52;;;;;;;69.78;28.65;;;2.60;99.90;;;;;;5055736;28;20171;-35
2022/12/02 08:15:17;;;;;;;69.70;27.65;;;3.00;99.90;;;;;;5055703;28;20045;-33
2022/12/02 08:17:43;;;;;;;68.10;27.88;;;2.50;99.90;;;;;;5055187;28;20569;-32
2022/12/02 08:20:11;;;;;;;61.78;26.83;;;2.60;99.90;;;;;;5056433;28;20134;-33
2022/12/02 08:22:37;;;;;;;66.05;26.05;;;2.50;99.90;;;;;;5054568;28;20048;-33
2022/12/02 08:25:03;;;;;;;58.35;25.63;;;2.50;99.90;;;;;;5056470;28;20045;-32
2022/12/02 08:27:29;;;;;;;54.45;25.58;;;2.40;99.90;;;;;;5054434;28;20056;-32
2022/12/02 08:29:55;;;;;;;60.08;24.80;;;2.50;99.90;;;;;;5055232;28;20399;-33
2022/12/02 08:32:21;;;;;;;59.33;24.30;;;2.30;99.90;;;;;;5054298;28;20041;-32
2022/12/02 08:34:46;;;;;;;51.83;22.73;;;2.30;99.90;;;;;;5055324;28;20049;-33
2022/12/02 08:37:13;;;;;;;59.35;27.20;;;2.30;99.90;;;;;;5055391;28;20131;-34
2022/12/02 08:39:39;;;;;;;58.67;26.35;;;2.20;99.90;;;;;;5055627;28;20036;-32
2022/12/02 08:42:05;;;;;;;72.82;28.95;;;2.30;99.90;;;;;;5087865;28;20494;-32
2022/12/02 08:44:31;;;;;;;69.43;27.55;;;2.30;99.90;;;;;;5055257;28;20454;-32
2022/12/02 08:46:57;;;;;;;64.18;26.58;;;2.30;99.90;;;;;;5055969;28;20390;-32
2022/12/02 08:49:24;;;;;;;72.72;28.70;;;2.30;99.90;;;;;;5051276;28;20116;-33
2022/12/02 08:51:49;;;;;;;74.72;28.13;;;2.30;99.90;;;;;;5048405;28;20064;-33
2022/12/02 08:54:15;;;;;;;61.13;26.85;;;2.30;99.90;;;;;;5045481;28;20410;-32
2022/12/02 08:56:42;;;;;;;64.18;26.48;;;2.20;99.90;;;;;;5051034;28;20052;-32
2022/12/02 08:59:09;;;;;;;57.80;25.50;;;2.20;99.90;;;;;;5034903;28;20053;-32
2022/12/02 09:01:34;;;;;;;56.78;26.30;;;2.20;99.90;;;;;;5034976;28;20041;-32
2022/12/02 09:04:00;;;;;;;54.58;22.73;;;2.20;99.90;;;;;;5035198;28;20048;-32
2022/12/02 09:06:26;;;;;;;57.67;21.95;;;2.10;99.90;;;;;;5034916;28;20081;-32
2022/12/02 09:08:51;;;;;;;51.53;23.27;;;2.10;99.90;;;;;;5035435;28;20404;-33
2022/12/02 09:11:18;;;;;;;55.08;24.23;;;2.10;99.90;;;;;;5050675;28;20045;-32
2022/12/02 09:13:43;;;;;;;55.67;21.98;;;2.00;99.90;;;;;;5035271;28;20041;-34
2022/12/02 09:16:09;;;;;;;53.20;21.58;;;2.00;99.90;;;;;;5033552;28;20052;-32
2022/12/02 09:18:35;;;;;;;51.85;20.30;;;2.00;99.90;;;;;;5034571;28;20060;-33
2022/12/02 09:21:01;;;;;;;53.13;22.30;;;2.10;99.90;;;;;;5035235;28;20384;-33
2022/12/02 09:23:28;;;;;;;48.97;20.48;;;2.00;99.90;;;;;;5035119;28;20100;-33
2022/12/02 09:25:54;;;;;;;50.97;20.65;;;2.50;99.90;;;;;;5034579;28;20050;-32
2022/12/02 09:28:21;;;;;;;49.67;21.30;;;2.30;99.90;;;;;;5050466;28;20051;-32
2022/12/02 09:30:47;;;;;;;52.13;20.77;;;2.00;99.90;;;;;;5016780;28;20053;-32
2022/12/02 09:33:13;;;;;;;54.03;20.92;;;1.90;99.90;;;;;;5034363;28;20049;-32
2022/12/02 09:35:39;;;;;;;54.90;20.70;;;1.80;99.90;;;;;;5034352;28;20114;-33
2022/12/02 09:38:04;;;;;;;57.63;22.63;;;1.80;99.90;;;;;;5049702;28;20052;-32
2022/12/02 09:40:32;;;;;;;57.63;21.65;;;1.80;99.90;;;;;;5034293;28;20044;-32
2022/12/02 09:42:58;;;;;;;61.78;23.52;;;1.70;99.90;;;;;;5034236;28;20050;-33
2022/12/02 09:45:23;;;;;;;64.85;23.88;;;1.70;99.90;;;;;;5034732;28;20073;-32
2022/12/02 09:47:49;;;;;;;61.97;22.58;;;1.70;99.90;;;;;;5066476;28;20500;-34
2022/12/02 09:50:16;;;;;;;60.97;23.13;;;1.70;99.90;;;;;;5034308;28;20049;-32
2022/12/02 09:52:42;;;;;;;66.88;24.45;;;1.70;99.90;;;;;;5066678;28;20180;-33
2022/12/02 09:55:17;;;;;;;64.68;24.00;;;1.70;99.90;;;;;;5034012;28;20049;-33
2022/12/02 09:57:44;;;;;;;66.95;25.02;;;1.70;99.90;;;;;;5034313;28;20132;-32
2022/12/02 10:00:22;;;;;;;57.10;23.42;;;1.70;99.90;;;;;;5033972;28;20048;-32
2022/12/02 10:02:53;;;;;;;62.30;25.40;;;1.70;99.90;;;;;;5033672;28;20496;-32
2022/12/02 10:05:20;;;;;;;60.17;23.63;;;1.80;99.90;;;;;;5034188;28;20438;-32
2022/12/02 10:07:47;;;;;;;60.33;23.58;;;1.80;99.90;;;;;;5033602;28;20387;-32
2022/12/02 10:10:19;;;;;;;58.45;23.65;;;1.80;99.90;;;;;;5033985;28;20037;-33
2022/12/02 10:12:45;;;;;;;55.55;22.83;;;1.90;99.90;;;;;;5033825;28;20049;-32
2022/12/02 10:15:12;;;;;;;60.03;23.73;;;1.90;99.90;;;;;;5033744;28;20088;-32
2022/12/02 10:17:38;;;;;;;50.67;22.40;;;1.90;99.90;;;;;;5033636;28;20471;-32
2022/12/02 10:20:05;;;;;;;57.25;24.27;;;2.00;99.90;;;;;;5033679;28;20124;-32
2022/12/02 10:22:30;;;;;;;56.15;24.25;;;2.10;99.90;;;;;;5033666;28;20084;-32
2022/12/02 10:24:57;;;;;;;51.25;22.38;;;2.20;99.90;;;;;;5034494;28;20084;-32
2022/12/02 10:27:28;;;;;;;51.20;22.98;;;2.40;99.90;;;;;;5033886;28;20045;-33
2022/12/02 10:29:53;;;;;;;54.88;24.05;;;2.60;99.90;;;;;;5032540;28;20045;-33
2022/12/02 10:32:26;;;;;;;51.95;22.85;;;2.60;99.90;;;;;;5033584;28;20041;-33
2022/12/02 10:35:08;;;;;;;55.63;23.95;;;2.50;99.90;;;;;;5033649;28;20053;-33
2022/12/02 10:37:34;;;;;;;51.63;23.98;;;2.50;99.90;;;;;;5033537;28;20514;-32
2022/12/02 10:40:14;;;;;;;48.03;22.77;;;2.20;99.90;;;;;;5033473;28;20128;-32
2022/12/02 10:42:40;;;;;;;48.65;23.83;;;2.20;99.90;;;;;;5033508;28;20041;-32
2022/12/02 10:45:19;;;;;;;50.03;23.08;;;2.20;99.90;;;;;;5033521;28;20053;-32
2022/12/02 10:47:46;;;;;;;45.70;21.90;;;2.10;99.90;;;;;;5033482;28;20068;-32
2022/12/02 10:50:20;;;;;;;49.50;22.80;;;2.10;99.90;;;;;;5033009;28;20502;-33
2022/12/02 10:52:50;;;;;;;50.15;23.00;;;2.10;99.90;;;;;;5034276;28;20072;-32
2022/12/02 10:55:17;;;;;;;47.53;23.73;;;2.20;99.90;;;;;;5032255;28;20081;-32
2022/12/02 10:57:44;;;;;;;51.83;23.90;;;2.20;99.90;;;;;;5033316;28;20045;-32
2022/12/02 11:00:23;;;;;;;51.13;24.33;;;2.30;99.90;;;;;;5033055;28;20380;-32
2022/12/02 11:02:57;;;;;;;45.38;23.52;;;2.40;99.90;;;;;;5034185;28;20123;-32
2022/12/02 11:05:32;;;;;;;50.20;24.52;;;2.50;99.90;;;;;;5033308;28;20052;-33
2022/12/02 11:08:14;;;;;;;52.17;25.77;;;2.60;99.90;;;;;;5032895;28;20443;-33
2022/12/02 11:10:42;;;;;;;47.72;24.50;;;2.70;99.90;;;;;;5033181;28;20050;-33
2022/12/02 11:13:17;;;;;;;48.83;23.50;;;2.80;99.90;;;;;;5033214;28;20124;-32
2022/12/02 11:15:46;;;;;;;49.38;24.70;;;3.00;99.90;;;;;;5033155;28;20050;-32
2022/12/02 11:18:37;;;;;;;52.65;26.48;;;3.10;99.90;;;;;;5031955;28;20050;-33
2022/12/02 11:21:06;;;;;;;47.95;25.02;;;3.10;99.90;;;;;;5036455;28;20496;-33
2022/12/02 11:23:33;;;;;;;51.53;26.55;;;4.10;99.90;;;;;;5036873;28;20426;-33
2022/12/02 11:26:01;;;;;;;50.55;27.70;;;3.30;99.90;;;;;;5036799;28;20068;-32
2022/12/02 11:28:27;;;;;;;53.72;29.00;;;3.30;99.90;;;;;;5036824;28;20088;-32
2022/12/02 11:31:12;;;;;;;49.95;28.85;;;3.30;99.90;;;;;;5036614;28;20080;-32
2022/12/02 11:33:47;;;;;;;47.78;27.92;;;3.20;99.90;;;;;;5036596;28;20099;-32
2022/12/02 11:36:24;;;;;;;50.53;29.23;;;3.20;99.90;;;;;;5036540;28;20049;-33
2022/12/02 11:38:50;;;;;;;51.65;28.98;;;3.80;99.90;;;;;;5036585;28;20076;-33
2022/12/02 11:41:17;;;;;;;52.17;28.27;;;3.20;99.90;;;;;;5036516;28;20503;-33
2022/12/02 11:43:45;;;;;;;47.33;28.38;;;3.20;99.90;;;;;;5036149;28;20516;-33
2022/12/02 11:46:35;;;;;;;51.75;29.85;;;3.10;99.90;;;;;;5036422;28;20106;-33
2022/12/02 11:49:01;;;;;;;47.63;28.17;;;2.90;99.90;;;;;;5035967;28;20054;-32
2022/12/02 11:51:33;;;;;;;52.22;27.15;;;2.90;99.90;;;;;;5036548;28;20052;-33
2022/12/02 11:53:59;;;;;;;47.53;27.50;;;2.80;99.90;;;;;;5036271;28;20045;-32
2022/12/02 11:56:36;;;;;;;52.88;28.65;;;2.80;99.90;;;;;;5035104;28;20045;-32
2022/12/02 11:59:02;;;;;;;49.17;28.25;;;2.80;99.90;;;;;;5035265;28;20510;-32
2022/12/02 12:01:29;;;;;;;48.67;27.75;;;2.80;99.90;;;;;;5035837;28;20046;-33
2022/12/02 12:03:54;;;;;;;47.95;27.80;;;2.80;99.90;;;;;;5069230;28;20053;-33
2022/12/02 12:06:25;;;;;;;45.13;27.17;;;2.80;99.90;;;;;;5036633;28;20068;-33
2022/12/02 12:08:55;;;;;;;46.45;27.30;;;2.70;99.90;;;;;;5034997;28;20147;-32
2022/12/02 12:11:29;;;;;;;46.92;26.45;;;2.70;99.90;;;;;;5036234;28;20182;-32
2022/12/02 12:14:10;;;;;;;48.10;24.65;;;2.60;99.90;;;;;;5035981;28;20041;-32
2022/12/02 12:16:46;;;;;;;48.22;27.10;;;2.60;99.90;;;;;;5036110;28;20395;-32
2022/12/02 12:19:11;;;;;;;45.63;26.05;;;2.50;99.90;;;;;;5035780;28;20045;-32
2022/12/02 12:21:47;;;;;;;49.63;26.35;;;2.50;99.90;;;;;;5035794;28;20052;-33
2022/12/02 12:24:25;;;;;;;44.92;24.98;;;2.50;99.90;;;;;;5036075;28;20045;-32
2022/12/02 12:26:56;;;;;;;45.45;26.00;;;2.50;99.90;;;;;;5036254;28;20128;-33
2022/12/02 12:29:40;;;;;;;42.10;24.23;;;2.60;99.90;;;;;;5035616;28;20076;-32
2022/12/02 12:32:07;;;;;;;38.72;22.58;;;2.60;99.90;;;;;;5035622;28;20100;-32
2022/12/02 12:34:33;;;;;;;41.03;24.10;;;2.60;99.90;;;;;;5035551;28;20049;-32
2022/12/02 12:36:58;;;;;;;43.03;24.83;;;2.60;99.90;;;;;;5035494;28;20392;-33
2022/12/02 12:39:24;;;;;;;39.05;23.10;;;2.60;99.90;;;;;;5067989;28;20091;-33
2022/12/02 12:41:50;;;;;;;40.47;23.55;;;2.60;99.90;;;;;;5035407;28;20397;-33
2022/12/02 12:44:16;;;;;;;46.33;23.88;;;2.60;99.90;;;;;;5035633;28;20045;-32